sensor_id;sensor_type;location;lat;lon;timestamp;pressure;altitude;pressure_sealevel;temperature;humidity
52949;BME280;38812;50.942;3.644;2023-01-26T00:00:45;102526.09;;;0.10;100.00
52949;BME280;38812;50.942;3.644;2023-01-26T00:03:11;102509.56;;;0.07;100.00
52949;BME280;38812;50.942;3.644;2023-01-26T00:05:37;102508.00;;;0.10;100.00
52949;BME280;38812;50.942;3.644;2023-01-26T00:08:03;102514.16;;;0.12;100.00
52949;BME280;38812;50.942;3.644;2023-01-26T00:10:28;102502.84;;;0.10;100.00
52949;BME280;38812;50.942;3.644;2023-01-26T00:12:53;102502.03;;;0.11;100.00
52949;BME280;38812;50.942;3.644;2023-01-26T00:15:19;102488.28;;;0.12;100.00
52949;BME280;38812;50.942;3.644;2023-01-26T00:17:44;102481.22;;;0.08;100.00
52949;BME280;38812;50.942;3.644;2023-01-26T00:20:10;102493.63;;;0.15;100.00
52949;BME280;38812;50.942;3.644;2023-01-26T00:22:35;102489.47;;;0.19;100.00
52949;BME280;38812;50.942;3.644;2023-01-26T00:25:01;102486.97;;;0.20;100.00
52949;BME280;38812;50.942;3.644;2023-01-26T00:27:26;102482.53;;;0.18;100.00
52949;BME280;38812;50.942;3.644;2023-01-26T00:29:52;102480.84;;;0.18;100.00
52949;BME280;38812;50.942;3.644;2023-01-26T00:32:17;102478.19;;;0.17;100.00
52949;BME280;38812;50.942;3.644;2023-01-26T00:34:43;102480.91;;;0.20;100.00
52949;BME280;38812;50.942;3.644;2023-01-26T00:37:09;102476.63;;;0.20;100.00
52949;BME280;38812;50.942;3.644;2023-01-26T00:39:34;102479.22;;;0.20;100.00
52949;BME280;38812;50.942;3.644;2023-01-26T00:41:59;102484.59;;;0.25;100.00
52949;BME280;38812;50.942;3.644;2023-01-26T00:44:31;102485.47;;;0.25;100.00
52949;BME280;38812;50.942;3.644;2023-01-26T00:46:57;102481.19;;;0.26;100.00
52949;BME280;38812;50.942;3.644;2023-01-26T00:49:22;102489.81;;;0.26;100.00
52949;BME280;38812;50.942;3.644;2023-01-26T00:51:48;102477.56;;;0.22;100.00
52949;BME280;38812;50.942;3.644;2023-01-26T00:54:13;102476.91;;;0.26;100.00
52949;BME280;38812;50.942;3.644;2023-01-26T00:56:39;102475.13;;;0.25;100.00
52949;BME280;38812;50.942;3.644;2023-01-26T00:59:04;102481.34;;;0.29;100.00
52949;BME280;38812;50.942;3.644;2023-01-26T01:01:30;102477.94;;;0.30;100.00
52949;BME280;38812;50.942;3.644;2023-01-26T01:03:56;102461.53;;;0.29;100.00
52949;BME280;38812;50.942;3.644;2023-01-26T01:06:21;102466.72;;;0.29;100.00
52949;BME280;38812;50.942;3.644;2023-01-26T01:08:47;102460.66;;;0.29;100.00
52949;BME280;38812;50.942;3.644;2023-01-26T01:11:12;102470.53;;;0.38;100.00
52949;BME280;38812;50.942;3.644;2023-01-26T01:13:38;102462.50;;;0.31;100.00
52949;BME280;38812;50.942;3.644;2023-01-26T01:16:08;102472.16;;;0.36;100.00
52949;BME280;38812;50.942;3.644;2023-01-26T01:18:34;102461.69;;;0.32;100.00
52949;BME280;38812;50.942;3.644;2023-01-26T01:20:59;102465.38;;;0.38;100.00
52949;BME280;38812;50.942;3.644;2023-01-26T01:23:28;102460.06;;;0.34;100.00
52949;BME280;38812;50.942;3.644;2023-01-26T01:25:58;102455.69;;;0.33;100.00
52949;BME280;38812;50.942;3.644;2023-01-26T01:28:23;102461.00;;;0.37;100.00
52949;BME280;38812;50.942;3.644;2023-01-26T01:30:49;102470.53;;;0.38;100.00
52949;BME280;38812;50.942;3.644;2023-01-26T01:33:14;102465.38;;;0.38;100.00
52949;BME280;38812;50.942;3.644;2023-01-26T01:35:40;102463.59;;;0.37;100.00
52949;BME280;38812;50.942;3.644;2023-01-26T01:38:05;102458.44;;;0.37;100.00
52949;BME280;38812;50.942;3.644;2023-01-26T01:40:30;102447.19;;;0.36;100.00
52949;BME280;38812;50.942;3.644;2023-01-26T01:42:56;102449.72;;;0.34;100.00
52949;BME280;38812;50.942;3.644;2023-01-26T01:45:41;102456.81;;;0.39;100.00
52949;BME280;38812;50.942;3.644;2023-01-26T01:48:12;102444.63;;;0.36;100.00
52949;BME280;38812;50.942;3.644;2023-01-26T01:50:39;102438.56;;;0.36;100.00
52949;BME280;38812;50.942;3.644;2023-01-26T01:53:07;102442.19;;;0.39;100.00
52949;BME280;38812;50.942;3.644;2023-01-26T01:55:36;102425.50;;;0.32;100.00
52949;BME280;38812;50.942;3.644;2023-01-26T01:58:02;102413.22;;;0.28;100.00
52949;BME280;38812;50.942;3.644;2023-01-26T02:00:28;102425.72;;;0.37;100.00
52949;BME280;38812;50.942;3.644;2023-01-26T02:03:04;102424.16;;;0.41;100.00
52949;BME280;38812;50.942;3.644;2023-01-26T02:08:18;102441.44;;;0.42;100.00
52949;BME280;38812;50.942;3.644;2023-01-26T02:10:46;102431.91;;;0.41;100.00
52949;BME280;38812;50.942;3.644;2023-01-26T02:13:15;102420.47;;;0.36;100.00
52949;BME280;38812;50.942;3.644;2023-01-26T02:15:41;102427.56;;;0.40;100.00
52949;BME280;38812;50.942;3.644;2023-01-26T02:18:07;102430.81;;;0.36;100.00
52949;BME280;38812;50.942;3.644;2023-01-26T02:20:46;102424.91;;;0.38;100.00
52949;BME280;38812;50.942;3.644;2023-01-26T02:28:31;102436.19;;;0.40;100.00
52949;BME280;38812;50.942;3.644;2023-01-26T02:30:57;102431.97;;;0.42;100.00
52949;BME280;38812;50.942;3.644;2023-01-26T02:33:26;102436.13;;;0.39;100.00
52949;BME280;38812;50.942;3.644;2023-01-26T02:35:52;102415.06;;;0.31;100.00
52949;BME280;38812;50.942;3.644;2023-01-26T02:38:19;102435.38;;;0.41;100.00
52949;BME280;38812;50.942;3.644;2023-01-26T02:40:53;102432.97;;;0.46;100.00
52949;BME280;38812;50.942;3.644;2023-01-26T02:43:20;102430.31;;;0.44;100.00
52949;BME280;38812;50.942;3.644;2023-01-26T02:45:48;102437.41;;;0.48;100.00
52949;BME280;38812;50.942;3.644;2023-01-26T02:48:13;102440.00;;;0.48;100.00
52949;BME280;38812;50.942;3.644;2023-01-26T02:50:58;102435.78;;;0.50;100.00
52949;BME280;38812;50.942;3.644;2023-01-26T02:53:24;102435.78;;;0.50;100.00
52949;BME280;38812;50.942;3.644;2023-01-26T02:55:49;102425.28;;;0.47;100.00
52949;BME280;38812;50.942;3.644;2023-01-26T02:58:16;102432.09;;;0.45;100.00
52949;BME280;38812;50.942;3.644;2023-01-26T03:00:41;102432.16;;;0.47;100.00
52949;BME280;38812;50.942;3.644;2023-01-26T03:03:13;102434.75;;;0.47;100.00
52949;BME280;38812;50.942;3.644;2023-01-26T03:05:38;102437.34;;;0.47;100.00
52949;BME280;38812;50.942;3.644;2023-01-26T03:08:04;102428.63;;;0.45;100.00
52949;BME280;38812;50.942;3.644;2023-01-26T03:10:30;102442.56;;;0.48;100.00
52949;BME280;38812;50.942;3.644;2023-01-26T03:12:56;102436.38;;;0.45;100.00
52949;BME280;38812;50.942;3.644;2023-01-26T03:15:21;102429.44;;;0.44;100.00
52949;BME280;38812;50.942;3.644;2023-01-26T03:18:09;102434.75;;;0.47;100.00
52949;BME280;38812;50.942;3.644;2023-01-26T03:20:53;102426.03;;;0.45;100.00
52949;BME280;38812;50.942;3.644;2023-01-26T03:23:37;102433.84;;;0.46;100.00
52949;BME280;38812;50.942;3.644;2023-01-26T03:26:21;102424.41;;;0.47;100.00
52949;BME280;38812;50.942;3.644;2023-01-26T03:29:05;102438.44;;;0.52;100.00
52949;BME280;38812;50.942;3.644;2023-01-26T03:31:30;102432.44;;;0.53;100.00
52949;BME280;38812;50.942;3.644;2023-01-26T03:33:56;102427.19;;;0.51;100.00
52949;BME280;38812;50.942;3.644;2023-01-26T03:36:21;102428.97;;;0.52;100.00
52949;BME280;38812;50.942;3.644;2023-01-26T03:38:47;102418.28;;;0.45;100.00
52949;BME280;38812;50.942;3.644;2023-01-26T03:41:12;102420.94;;;0.46;100.00
52949;BME280;38812;50.942;3.644;2023-01-26T03:43:56;102420.13;;;0.47;100.00
52949;BME280;38812;50.942;3.644;2023-01-26T03:46:40;102425.22;;;0.46;100.00
52949;BME280;38812;50.942;3.644;2023-01-26T03:49:24;102424.53;;;0.50;100.00
52949;BME280;38812;50.942;3.644;2023-01-26T03:52:08;102418.28;;;0.45;100.00
52949;BME280;38812;50.942;3.644;2023-01-26T03:54:52;102418.28;;;0.45;100.00
52949;BME280;38812;50.942;3.644;2023-01-26T03:57:36;102420.19;;;0.49;100.00
52949;BME280;38812;50.942;3.644;2023-01-26T04:00:02;102408.88;;;0.47;100.00
52949;BME280;38812;50.942;3.644;2023-01-26T04:02:28;102404.34;;;0.41;100.00
52949;BME280;38812;50.942;3.644;2023-01-26T04:05:12;102416.78;;;0.50;100.00
52949;BME280;38812;50.942;3.644;2023-01-26T04:08:04;102401.00;;;0.44;100.00
52949;BME280;38812;50.942;3.644;2023-01-26T04:10:44;102413.59;;;0.55;100.00
52949;BME280;38812;50.942;3.644;2023-01-26T04:13:10;102421.34;;;0.55;100.00
52949;BME280;38812;50.942;3.644;2023-01-26T04:15:53;102395.00;;;0.45;100.00
52949;BME280;38812;50.942;3.644;2023-01-26T04:18:37;102409.31;;;0.56;100.00
52949;BME280;38812;50.942;3.644;2023-01-26T04:21:21;102410.13;;;0.55;100.00
52949;BME280;38812;50.942;3.644;2023-01-26T04:24:01;102408.34;;;0.54;100.00
52949;BME280;38812;50.942;3.644;2023-01-26T04:26:29;102408.34;;;0.54;100.00
52949;BME280;38812;50.942;3.644;2023-01-26T04:29:05;102421.56;;;0.60;100.00
52949;BME280;38812;50.942;3.644;2023-01-26T04:31:31;102415.44;;;0.58;100.00
52949;BME280;38812;50.942;3.644;2023-01-26T04:34:01;102412.84;;;0.58;100.00
52949;BME280;38812;50.942;3.644;2023-01-26T04:36:27;102418.03;;;0.58;100.00
52949;BME280;38812;50.942;3.644;2023-01-26T04:38:53;102412.72;;;0.55;100.00
52949;BME280;38812;50.942;3.644;2023-01-26T04:41:18;102409.84;;;0.49;100.00
52949;BME280;38812;50.942;3.644;2023-01-26T04:43:44;102412.56;;;0.52;100.00
52949;BME280;38812;50.942;3.644;2023-01-26T04:46:09;102418.03;;;0.58;100.00
52949;BME280;38812;50.942;3.644;2023-01-26T04:48:35;102417.97;;;0.56;100.00
52949;BME280;38812;50.942;3.644;2023-01-26T04:51:04;102424.84;;;0.56;100.00
52949;BME280;38812;50.942;3.644;2023-01-26T04:53:31;102421.28;;;0.54;100.00
52949;BME280;38812;50.942;3.644;2023-01-26T04:55:57;102406.50;;;0.51;100.00
52949;BME280;38812;50.942;3.644;2023-01-26T04:58:22;102404.00;;;0.53;100.00
52949;BME280;38812;50.942;3.644;2023-01-26T05:00:56;102399.94;;;0.58;100.00
52949;BME280;38812;50.942;3.644;2023-01-26T05:03:22;102409.44;;;0.59;100.00
52949;BME280;38812;50.942;3.644;2023-01-26T05:05:49;102404.28;;;0.59;100.00
52949;BME280;38812;50.942;3.644;2023-01-26T05:08:16;102403.41;;;0.58;100.00
52949;BME280;38812;50.942;3.644;2023-01-26T05:10:41;102402.50;;;0.58;100.00
52949;BME280;38812;50.942;3.644;2023-01-26T05:13:07;102405.91;;;0.57;100.00
52949;BME280;38812;50.942;3.644;2023-01-26T05:15:33;102399.78;;;0.55;100.00
52949;BME280;38812;50.942;3.644;2023-01-26T05:17:58;102404.88;;;0.53;100.00
52949;BME280;38812;50.942;3.644;2023-01-26T05:20:24;102397.19;;;0.55;100.00
52949;BME280;38812;50.942;3.644;2023-01-26T05:22:50;102406.88;;;0.59;100.00
52949;BME280;38812;50.942;3.644;2023-01-26T05:25:15;102399.09;;;0.59;100.00
52949;BME280;38812;50.942;3.644;2023-01-26T05:27:40;102388.47;;;0.53;100.00
52949;BME280;38812;50.942;3.644;2023-01-26T05:30:06;102396.44;;;0.57;100.00
52949;BME280;38812;50.942;3.644;2023-01-26T05:32:32;102398.28;;;0.60;100.00
52949;BME280;38812;50.942;3.644;2023-01-26T05:34:57;102393.19;;;0.61;100.00
52949;BME280;38812;50.942;3.644;2023-01-26T05:37:24;102400.13;;;0.62;100.00
52949;BME280;38812;50.942;3.644;2023-01-26T05:39:50;102394.00;;;0.60;100.00
52949;BME280;38812;50.942;3.644;2023-01-26T05:42:15;102392.44;;;0.64;100.00
52949;BME280;38812;50.942;3.644;2023-01-26T05:44:41;102392.56;;;0.67;100.00
52949;BME280;38812;50.942;3.644;2023-01-26T05:47:06;102396.09;;;0.69;100.00
52949;BME280;38812;50.942;3.644;2023-01-26T05:49:32;102392.56;;;0.67;100.00
52949;BME280;38812;50.942;3.644;2023-01-26T05:51:57;102394.22;;;0.65;100.00
52949;BME280;38812;50.942;3.644;2023-01-26T05:54:22;102399.38;;;0.65;100.00
52949;BME280;38812;50.942;3.644;2023-01-26T05:56:48;102407.31;;;0.69;100.00
52949;BME280;38812;50.942;3.644;2023-01-26T05:59:14;102410.88;;;0.72;100.00
52949;BME280;38812;50.942;3.644;2023-01-26T06:01:39;102409.97;;;0.71;100.00
52949;BME280;38812;50.942;3.644;2023-01-26T06:04:05;102399.50;;;0.68;100.00
52949;BME280;38812;50.942;3.644;2023-01-26T06:06:30;102396.53;;;0.59;100.00
52949;BME280;38812;50.942;3.644;2023-01-26T06:08:56;102408.00;;;0.65;100.00
52949;BME280;38812;50.942;3.644;2023-01-26T06:11:22;102415.00;;;0.68;100.00
52949;BME280;38812;50.942;3.644;2023-01-26T06:13:47;102416.63;;;0.66;100.00
52949;BME280;38812;50.942;3.644;2023-01-26T06:16:13;102421.13;;;0.70;100.00
52949;BME280;38812;50.942;3.644;2023-01-26T06:18:38;102433.25;;;0.71;100.00
52949;BME280;38812;50.942;3.644;2023-01-26T06:21:04;102425.63;;;0.74;100.00
52949;BME280;38812;50.942;3.644;2023-01-26T06:23:30;102422.22;;;0.75;100.00
52949;BME280;38812;50.942;3.644;2023-01-26T06:25:59;102431.84;;;0.78;100.00
52949;BME280;38812;50.942;3.644;2023-01-26T06:28:24;102435.59;;;0.84;100.00
52949;BME280;38812;50.942;3.644;2023-01-26T06:30:50;102427.00;;;0.85;100.00
52949;BME280;38812;50.942;3.644;2023-01-26T06:33:15;102438.19;;;0.84;100.00
52949;BME280;38812;50.942;3.644;2023-01-26T06:35:40;102443.22;;;0.81;100.00
52949;BME280;38812;50.942;3.644;2023-01-26T06:38:06;102429.31;;;0.79;100.00
52949;BME280;38812;50.942;3.644;2023-01-26T06:40:31;102435.75;;;0.89;100.00
52949;BME280;38812;50.942;3.644;2023-01-26T06:42:57;102447.88;;;0.90;100.00
52949;BME280;38812;50.942;3.644;2023-01-26T06:45:22;102441.50;;;0.82;100.00
52949;BME280;38812;50.942;3.644;2023-01-26T06:47:49;102457.09;;;0.83;100.00
52949;BME280;38812;50.942;3.644;2023-01-26T06:50:17;102452.06;;;0.86;100.00
52949;BME280;38812;50.942;3.644;2023-01-26T06:52:46;102463.53;;;0.93;100.00
52949;BME280;38812;50.942;3.644;2023-01-26T06:55:23;102461.78;;;0.92;100.00
52949;BME280;38812;50.942;3.644;2023-01-26T06:57:52;102453.94;;;0.90;100.00
52949;BME280;38812;50.942;3.644;2023-01-26T07:00:18;102466.47;;;1.00;100.00
52949;BME280;38812;50.942;3.644;2023-01-26T07:02:43;102456.66;;;0.93;100.00
52949;BME280;38812;50.942;3.644;2023-01-26T07:05:09;102461.91;;;0.95;100.00
52949;BME280;38812;50.942;3.644;2023-01-26T07:07:35;102464.72;;;0.99;100.00
52949;BME280;38812;50.942;3.644;2023-01-26T07:10:01;102458.72;;;1.00;100.00
52949;BME280;38812;50.942;3.644;2023-01-26T07:12:37;102464.84;;;1.02;100.00
52949;BME280;38812;50.942;3.644;2023-01-26T07:15:02;102467.28;;;1.19;100.00
52949;BME280;38812;50.942;3.644;2023-01-26T07:17:28;102475.25;;;1.23;100.00
52949;BME280;38812;50.942;3.644;2023-01-26T07:19:53;102476.97;;;1.03;100.00
52949;BME280;38812;50.942;3.644;2023-01-26T07:22:18;102477.75;;;1.22;100.00
52949;BME280;38812;50.942;3.644;2023-01-26T07:24:44;102454.34;;;0.99;100.00
52949;BME280;38812;50.942;3.644;2023-01-26T07:27:09;102460.19;;;1.15;100.00
52949;BME280;38812;50.942;3.644;2023-01-26T07:29:34;102470.16;;;1.06;100.00
52949;BME280;38812;50.942;3.644;2023-01-26T07:32:00;102475.56;;;1.12;100.00
52949;BME280;38812;50.942;3.644;2023-01-26T07:34:25;102478.03;;;1.09;100.00
52949;BME280;38812;50.942;3.644;2023-01-26T07:36:51;102478.88;;;1.08;100.00
52949;BME280;38812;50.942;3.644;2023-01-26T07:39:16;102498.34;;;1.19;100.00
52949;BME280;38812;50.942;3.644;2023-01-26T07:41:42;102487.72;;;1.13;100.00
52949;BME280;38812;50.942;3.644;2023-01-26T07:44:10;102500.19;;;1.21;100.00
52949;BME280;38812;50.942;3.644;2023-01-26T07:46:36;102488.88;;;1.19;100.00
52949;BME280;38812;50.942;3.644;2023-01-26T07:49:01;102495.81;;;1.20;100.00
52949;BME280;38812;50.942;3.644;2023-01-26T07:51:27;102496.69;;;1.21;100.00
52949;BME280;38812;50.942;3.644;2023-01-26T07:53:52;102499.50;;;1.25;100.00
52949;BME280;38812;50.942;3.644;2023-01-26T07:56:18;102500.56;;;1.30;100.00
52949;BME280;38812;50.942;3.644;2023-01-26T07:58:48;102500.75;;;1.35;100.00
52949;BME280;38812;50.942;3.644;2023-01-26T08:01:14;102495.34;;;1.29;100.00
52949;BME280;38812;50.942;3.644;2023-01-26T08:03:40;102515.00;;;1.45;100.00
52949;BME280;38812;50.942;3.644;2023-01-26T08:06:07;102512.53;;;1.48;100.00
52949;BME280;38812;50.942;3.644;2023-01-26T08:08:33;102511.94;;;1.55;100.00
52949;BME280;38812;50.942;3.644;2023-01-26T08:11:00;102504.94;;;1.52;100.00
52949;BME280;38812;50.942;3.644;2023-01-26T08:13:27;102507.84;;;1.60;100.00
52949;BME280;38812;50.942;3.644;2023-01-26T08:15:52;102497.22;;;1.54;100.00
52949;BME280;38812;50.942;3.644;2023-01-26T08:18:18;102513.25;;;1.64;100.00
52949;BME280;38812;50.942;3.644;2023-01-26T08:20:51;102512.69;;;1.71;100.00
52949;BME280;38812;50.942;3.644;2023-01-26T08:23:17;102524.16;;;1.78;100.00
52949;BME280;38812;50.942;3.644;2023-01-26T08:25:43;102518.28;;;1.82;100.00
52949;BME280;38812;50.942;3.644;2023-01-26T08:28:08;102523.81;;;1.90;100.00
52949;BME280;38812;50.942;3.644;2023-01-26T08:30:34;102520.38;;;1.91;100.00
52949;BME280;38812;50.942;3.644;2023-01-26T08:33:01;102527.69;;;2.01;100.00
52949;BME280;38812;50.942;3.644;2023-01-26T08:35:26;102526.06;;;2.03;100.00
52949;BME280;38812;50.942;3.644;2023-01-26T08:37:52;102532.66;;;2.17;100.00
52949;BME280;38812;50.942;3.644;2023-01-26T08:40:17;102540.00;;;2.27;100.00
52949;BME280;38812;50.942;3.644;2023-01-26T08:42:42;102537.00;;;2.39;100.00
52949;BME280;38812;50.942;3.644;2023-01-26T08:45:08;102536.34;;;2.45;100.00
52949;BME280;38812;50.942;3.644;2023-01-26T08:47:34;102540.28;;;2.56;100.00
52949;BME280;38812;50.942;3.644;2023-01-26T08:49:59;102524.56;;;2.53;100.00
52949;BME280;38812;50.942;3.644;2023-01-26T08:52:24;102537.31;;;2.69;100.00
52949;BME280;38812;50.942;3.644;2023-01-26T08:54:50;102527.16;;;2.75;100.00
52949;BME280;38812;50.942;3.644;2023-01-26T08:57:15;102537.34;;;2.93;100.00
52949;BME280;38812;50.942;3.644;2023-01-26T08:59:41;102536.19;;;3.08;100.00
52949;BME280;38812;50.942;3.644;2023-01-26T09:02:08;102535.94;;;3.25;100.00
52949;BME280;38812;50.942;3.644;2023-01-26T09:04:34;102542.38;;;3.36;100.00
52949;BME280;38812;50.942;3.644;2023-01-26T09:07:00;102521.47;;;3.33;100.00
52949;BME280;38812;50.942;3.644;2023-01-26T09:09:25;102542.84;;;3.50;100.00
52949;BME280;38812;50.942;3.644;2023-01-26T09:11:54;102545.06;;;3.63;100.00
52949;BME280;38812;50.942;3.644;2023-01-26T09:14:20;102534.59;;;3.87;100.00
52949;BME280;38812;50.942;3.644;2023-01-26T09:16:45;102541.56;;;3.88;100.00
52949;BME280;38812;50.942;3.644;2023-01-26T09:19:10;102541.91;;;3.98;100.00
52949;BME280;38812;50.942;3.644;2023-01-26T09:21:36;102541.84;;;3.97;100.00
52949;BME280;38812;50.942;3.644;2023-01-26T09:24:01;102540.97;;;3.96;100.00
52949;BME280;38812;50.942;3.644;2023-01-26T09:26:28;102536.03;;;4.04;100.00
52949;BME280;38812;50.942;3.644;2023-01-26T09:28:53;102535.47;;;4.14;100.00
52949;BME280;38812;50.942;3.644;2023-01-26T09:31:19;102525.28;;;4.20;100.00
52949;BME280;38812;50.942;3.644;2023-01-26T09:33:44;102526.56;;;4.34;100.00
52949;BME280;38812;50.942;3.644;2023-01-26T09:36:10;102537.38;;;4.46;100.00
52949;BME280;38812;50.942;3.644;2023-01-26T09:38:36;102528.94;;;4.54;100.00
52949;BME280;38812;50.942;3.644;2023-01-26T09:43:38;102546.44;;;4.59;100.00
52949;BME280;38812;50.942;3.644;2023-01-26T09:46:21;102534.69;;;4.72;100.00
52949;BME280;38812;50.942;3.644;2023-01-26T09:51:32;102541.50;;;4.98;100.00
52949;BME280;38812;50.942;3.644;2023-01-26T09:54:25;102546.66;;;4.95;100.00
52949;BME280;38812;50.942;3.644;2023-01-26T09:56:53;102553.97;;;5.08;100.00
52949;BME280;38812;50.942;3.644;2023-01-26T09:59:29;102554.50;;;5.27;100.00
52949;BME280;38812;50.942;3.644;2023-01-26T10:02:04;102549.28;;;5.27;100.00
52949;BME280;38812;50.942;3.644;2023-01-26T10:04:42;102546.09;;;5.37;100.00
52949;BME280;38812;50.942;3.644;2023-01-26T10:07:11;102552.25;;;5.39;100.00
52949;BME280;38812;50.942;3.644;2023-01-26T10:09:39;102555.06;;;5.48;100.00
52949;BME280;38812;50.942;3.644;2023-01-26T10:12:21;102546.66;;;5.58;100.00
52949;BME280;38812;50.942;3.644;2023-01-26T10:15:05;102552.78;;;5.59;100.00
52949;BME280;38812;50.942;3.644;2023-01-26T10:17:38;102562.44;;;5.64;100.00
52949;BME280;38812;50.942;3.644;2023-01-26T10:22:46;102551.34;;;5.71;100.00
52949;BME280;38812;50.942;3.644;2023-01-26T10:25:21;102554.25;;;5.82;100.00
52949;BME280;38812;50.942;3.644;2023-01-26T10:27:51;102543.91;;;5.86;100.00
52949;BME280;38812;50.942;3.644;2023-01-26T10:30:18;102556.47;;;6.00;100.00
52949;BME280;38812;50.942;3.644;2023-01-26T10:32:46;102559.28;;;6.09;100.00
52949;BME280;38812;50.942;3.644;2023-01-26T10:35:32;102561.94;;;6.10;100.00
52949;BME280;38812;50.942;3.644;2023-01-26T10:37:57;102557.78;;;6.18;100.00
52949;BME280;38812;50.942;3.644;2023-01-26T10:40:23;102566.19;;;6.05;100.00
52949;BME280;38812;50.942;3.644;2023-01-26T10:42:54;102576.72;;;6.10;100.00
52949;BME280;38812;50.942;3.644;2023-01-26T10:45:30;102568.78;;;6.05;100.00
52949;BME280;38812;50.942;3.644;2023-01-26T10:50:40;102575.88;;;6.11;100.00
52949;BME280;38812;50.942;3.644;2023-01-26T10:53:19;102565.50;;;6.14;100.00
52949;BME280;38812;50.942;3.644;2023-01-26T10:56:00;102576.94;;;6.19;100.00
52949;BME280;38812;50.942;3.644;2023-01-26T10:58:51;102585.66;;;6.19;100.00
52949;BME280;38812;50.942;3.644;2023-01-26T11:01:19;102582.13;;;6.17;100.00
52949;BME280;38812;50.942;3.644;2023-01-26T11:04:08;102584.94;;;6.25;100.00
52949;BME280;38812;50.942;3.644;2023-01-26T11:06:36;102580.34;;;6.16;100.00
52949;BME280;38812;50.942;3.644;2023-01-26T11:09:23;102584.41;;;6.04;100.00
52949;BME280;38812;50.942;3.644;2023-01-26T11:11:56;102590.22;;;5.94;100.00
52949;BME280;38812;50.942;3.644;2023-01-26T11:14:21;102592.63;;;5.88;100.00
52949;BME280;38812;50.942;3.644;2023-01-26T11:16:59;102584.38;;;5.71;100.00
52949;BME280;38812;50.942;3.644;2023-01-26T11:19:42;102594.03;;;5.75;100.00
52949;BME280;38812;50.942;3.644;2023-01-26T11:22:36;102589.50;;;5.68;100.00
52949;BME280;38812;50.942;3.644;2023-01-26T11:25:26;102594.00;;;5.73;100.00
52949;BME280;38812;50.942;3.644;2023-01-26T11:28:36;102587.19;;;5.78;100.00
52949;BME280;38812;50.942;3.644;2023-01-26T11:33:52;102579.53;;;5.86;100.00
52949;BME280;38812;50.942;3.644;2023-01-26T11:47:18;102563.97;;;6.22;100.00
52949;BME280;38812;50.942;3.644;2023-01-26T12:00:43;102552.06;;;6.71;100.00
52949;BME280;38812;50.942;3.644;2023-01-26T12:03:18;102549.63;;;6.80;100.00
52949;BME280;38812;50.942;3.644;2023-01-26T12:05:57;102554.25;;;6.92;100.00
52949;BME280;38812;50.942;3.644;2023-01-26T12:08:33;102549.00;;;6.90;100.00
52949;BME280;38812;50.942;3.644;2023-01-26T12:11:18;102551.78;;;6.99;100.00
52949;BME280;38812;50.942;3.644;2023-01-26T12:14:01;102519.41;;;6.91;100.00
52949;BME280;38812;50.942;3.644;2023-01-26T12:19:02;102532.50;;;6.94;100.00
52949;BME280;38812;50.942;3.644;2023-01-26T12:21:31;102541.13;;;6.88;100.00
52949;BME280;38812;50.942;3.644;2023-01-26T12:24:02;102532.31;;;6.85;100.00
52949;BME280;38812;50.942;3.644;2023-01-26T12:26:36;102535.72;;;6.81;100.00
52949;BME280;38812;50.942;3.644;2023-01-26T12:29:29;102534.63;;;6.71;100.00
52949;BME280;38812;50.942;3.644;2023-01-26T12:32:04;102527.53;;;6.64;100.00
52949;BME280;38812;50.942;3.644;2023-01-26T12:34:33;102535.78;;;6.84;100.00
52949;BME280;38812;50.942;3.644;2023-01-26T12:37:23;102533.81;;;7.16;100.00
52949;BME280;38812;50.942;3.644;2023-01-26T12:40:04;102524.84;;;7.47;100.00
52949;BME280;38812;50.942;3.644;2023-01-26T12:42:56;102528.81;;;7.73;100.00
52949;BME280;38812;50.942;3.644;2023-01-26T12:45:28;102522.28;;;8.00;100.00
52949;BME280;38812;50.942;3.644;2023-01-26T12:48:05;102526.22;;;7.75;100.00
52949;BME280;38812;50.942;3.644;2023-01-26T12:50:53;102523.13;;;7.49;100.00
52949;BME280;38812;50.942;3.644;2023-01-26T12:56:31;102527.22;;;7.33;100.00
52949;BME280;38812;50.942;3.644;2023-01-26T12:59:02;102520.75;;;7.14;100.00
52949;BME280;38812;50.942;3.644;2023-01-26T13:01:38;102518.19;;;7.19;100.00
52949;BME280;38812;50.942;3.644;2023-01-26T13:04:11;102512.03;;;7.15;100.00
52949;BME280;38812;50.942;3.644;2023-01-26T13:06:37;102517.44;;;7.25;100.00
52949;BME280;38812;50.942;3.644;2023-01-26T13:09:23;102514.44;;;7.05;100.00
52949;BME280;38812;50.942;3.644;2023-01-26T13:11:52;102513.69;;;7.10;100.00
52949;BME280;38812;50.942;3.644;2023-01-26T13:14:28;102521.19;;;7.39;100.00
52949;BME280;38812;50.942;3.644;2023-01-26T13:16:54;102508.59;;;7.65;100.00
52949;BME280;38812;50.942;3.644;2023-01-26T13:24:44;102510.03;;;7.47;100.00
52949;BME280;38812;50.942;3.644;2023-01-26T13:29:55;102507.19;;;7.37;100.00
52949;BME280;38812;50.942;3.644;2023-01-26T13:34:56;102504.97;;;7.58;100.00
52949;BME280;38812;50.942;3.644;2023-01-26T13:37:30;102488.75;;;7.28;100.00
52949;BME280;38812;50.942;3.644;2023-01-26T13:46:21;102510.53;;;7.28;100.00
52949;BME280;38812;50.942;3.644;2023-01-26T13:48:50;102502.66;;;7.27;100.00
52949;BME280;38812;50.942;3.644;2023-01-26T13:51:17;102499.06;;;7.20;100.00
52949;BME280;38812;50.942;3.644;2023-01-26T13:54:10;102499.88;;;7.17;100.00
52949;BME280;38812;50.942;3.644;2023-01-26T13:56:38;102496.59;;;7.28;100.00
52949;BME280;38812;50.942;3.644;2023-01-26T13:59:13;102505.13;;;7.66;100.00
52949;BME280;38812;50.942;3.644;2023-01-26T14:01:44;102497.25;;;7.64;100.00
52949;BME280;38812;50.942;3.644;2023-01-26T14:04:24;102497.91;;;7.51;100.00
52949;BME280;38812;50.942;3.644;2023-01-26T14:09:17;102501.94;;;7.34;100.00
52949;BME280;38812;50.942;3.644;2023-01-26T14:11:47;102509.88;;;7.40;100.00